sensor_id;sensor_type;location;lat;lon;timestamp;temperature;humidity
75457;SHT31;64036;48.266;14.192;2023-02-04T00:00:31;5.49;79.95
75457;SHT31;64036;48.266;14.192;2023-02-04T00:03:01;5.51;79.71
75457;SHT31;64036;48.266;14.192;2023-02-04T00:05:27;5.53;79.61
75457;SHT31;64036;48.266;14.192;2023-02-04T00:07:55;5.52;79.46
75457;SHT31;64036;48.266;14.192;2023-02-04T00:10:27;5.52;79.34
75457;SHT31;64036;48.266;14.192;2023-02-04T00:13:04;5.50;79.06
75457;SHT31;64036;48.266;14.192;2023-02-04T00:15:35;5.50;78.96
75457;SHT31;64036;48.266;14.192;2023-02-04T00:18:04;5.49;78.70
75457;SHT31;64036;48.266;14.192;2023-02-04T00:20:31;5.50;78.71
75457;SHT31;64036;48.266;14.192;2023-02-04T00:22:58;5.49;78.63
75457;SHT31;64036;48.266;14.192;2023-02-04T00:25:24;5.50;78.49
75457;SHT31;64036;48.266;14.192;2023-02-04T00:27:50;5.50;78.53
75457;SHT31;64036;48.266;14.192;2023-02-04T00:30:19;5.53;78.67
75457;SHT31;64036;48.266;14.192;2023-02-04T00:32:52;5.53;78.81
75457;SHT31;64036;48.266;14.192;2023-02-04T00:35:19;5.55;78.82
75457;SHT31;64036;48.266;14.192;2023-02-04T00:37:45;5.59;78.90
75457;SHT31;64036;48.266;14.192;2023-02-04T00:40:11;5.63;78.79
75457;SHT31;64036;48.266;14.192;2023-02-04T00:42:40;5.66;78.76
75457;SHT31;64036;48.266;14.192;2023-02-04T00:45:06;5.70;78.62
75457;SHT31;64036;48.266;14.192;2023-02-04T00:47:33;5.72;78.50
75457;SHT31;64036;48.266;14.192;2023-02-04T00:49:59;5.77;78.33
75457;SHT31;64036;48.266;14.192;2023-02-04T00:52:27;5.79;78.31
75457;SHT31;64036;48.266;14.192;2023-02-04T00:54:53;5.81;78.30
75457;SHT31;64036;48.266;14.192;2023-02-04T00:57:19;5.83;77.95
75457;SHT31;64036;48.266;14.192;2023-02-04T00:59:45;5.89;77.78
75457;SHT31;64036;48.266;14.192;2023-02-04T01:02:11;5.93;77.49
75457;SHT31;64036;48.266;14.192;2023-02-04T01:04:37;5.96;77.05
75457;SHT31;64036;48.266;14.192;2023-02-04T01:07:03;6.02;76.62
75457;SHT31;64036;48.266;14.192;2023-02-04T01:09:29;6.05;76.24
75457;SHT31;64036;48.266;14.192;2023-02-04T01:11:55;6.09;75.81
75457;SHT31;64036;48.266;14.192;2023-02-04T01:14:25;6.13;75.83
75457;SHT31;64036;48.266;14.192;2023-02-04T01:16:51;6.15;75.60
75457;SHT31;64036;48.266;14.192;2023-02-04T01:19:17;6.15;75.44
75457;SHT31;64036;48.266;14.192;2023-02-04T01:21:43;6.16;75.32
75457;SHT31;64036;48.266;14.192;2023-02-04T01:24:24;6.19;75.68
75457;SHT31;64036;48.266;14.192;2023-02-04T01:29:51;6.16;76.10
75457;SHT31;64036;48.266;14.192;2023-02-04T01:32:27;6.14;76.28
75457;SHT31;64036;48.266;14.192;2023-02-04T01:34:52;6.12;76.53
75457;SHT31;64036;48.266;14.192;2023-02-04T01:37:18;6.11;76.52
75457;SHT31;64036;48.266;14.192;2023-02-04T01:39:44;6.12;76.48
75457;SHT31;64036;48.266;14.192;2023-02-04T01:42:13;6.09;76.57
75457;SHT31;64036;48.266;14.192;2023-02-04T01:44:42;6.08;76.69
75457;SHT31;64036;48.266;14.192;2023-02-04T01:47:10;6.09;76.70
75457;SHT31;64036;48.266;14.192;2023-02-04T01:49:39;6.12;76.67
75457;SHT31;64036;48.266;14.192;2023-02-04T01:52:05;6.13;76.61
75457;SHT31;64036;48.266;14.192;2023-02-04T01:54:38;6.13;76.55
75457;SHT31;64036;48.266;14.192;2023-02-04T01:57:05;6.13;76.56
75457;SHT31;64036;48.266;14.192;2023-02-04T01:59:34;6.14;76.47
75457;SHT31;64036;48.266;14.192;2023-02-04T02:02:00;6.13;76.48
75457;SHT31;64036;48.266;14.192;2023-02-04T02:07:02;6.10;76.29
75457;SHT31;64036;48.266;14.192;2023-02-04T02:09:33;6.12;76.28
75457;SHT31;64036;48.266;14.192;2023-02-04T02:12:02;6.12;76.32
75457;SHT31;64036;48.266;14.192;2023-02-04T02:14:28;6.14;76.37
75457;SHT31;64036;48.266;14.192;2023-02-04T02:16:57;6.14;76.44
75457;SHT31;64036;48.266;14.192;2023-02-04T02:19:25;6.15;76.41
75457;SHT31;64036;48.266;14.192;2023-02-04T02:22:04;6.16;76.32
75457;SHT31;64036;48.266;14.192;2023-02-04T02:25:11;6.17;76.10
75457;SHT31;64036;48.266;14.192;2023-02-04T02:27:43;6.18;75.97
75457;SHT31;64036;48.266;14.192;2023-02-04T02:30:12;6.17;75.64
75457;SHT31;64036;48.266;14.192;2023-02-04T02:32:49;6.16;75.00
75457;SHT31;64036;48.266;14.192;2023-02-04T02:35:25;6.18;74.77
75457;SHT31;64036;48.266;14.192;2023-02-04T02:37:56;6.19;74.50
75457;SHT31;64036;48.266;14.192;2023-02-04T02:40:22;6.20;74.36
75457;SHT31;64036;48.266;14.192;2023-02-04T02:42:51;6.18;74.36
75457;SHT31;64036;48.266;14.192;2023-02-04T02:45:23;6.16;74.37
75457;SHT31;64036;48.266;14.192;2023-02-04T02:47:52;6.14;74.52
75457;SHT31;64036;48.266;14.192;2023-02-04T02:50:21;6.13;74.54
75457;SHT31;64036;48.266;14.192;2023-02-04T02:52:50;6.11;74.41
75457;SHT31;64036;48.266;14.192;2023-02-04T02:55:18;6.10;74.47
75457;SHT31;64036;48.266;14.192;2023-02-04T02:57:48;6.10;74.47
75457;SHT31;64036;48.266;14.192;2023-02-04T03:00:18;6.10;74.47
75457;SHT31;64036;48.266;14.192;2023-02-04T03:03:05;6.11;74.53
75457;SHT31;64036;48.266;14.192;2023-02-04T03:05:53;6.12;74.73
75457;SHT31;64036;48.266;14.192;2023-02-04T03:08:23;6.11;74.67
75457;SHT31;64036;48.266;14.192;2023-02-04T03:10:55;6.10;74.64
75457;SHT31;64036;48.266;14.192;2023-02-04T03:13:24;6.09;74.74
75457;SHT31;64036;48.266;14.192;2023-02-04T03:15:53;6.10;74.92
75457;SHT31;64036;48.266;14.192;2023-02-04T03:18:22;6.09;74.93
75457;SHT31;64036;48.266;14.192;2023-02-04T03:20:55;6.07;74.75
75457;SHT31;64036;48.266;14.192;2023-02-04T03:23:25;6.08;74.64
75457;SHT31;64036;48.266;14.192;2023-02-04T03:25:54;6.13;74.33
75457;SHT31;64036;48.266;14.192;2023-02-04T03:28:22;6.16;74.13
75457;SHT31;64036;48.266;14.192;2023-02-04T03:30:56;6.15;73.99
75457;SHT31;64036;48.266;14.192;2023-02-04T03:33:23;6.15;73.96
75457;SHT31;64036;48.266;14.192;2023-02-04T03:36:03;6.11;73.94
75457;SHT31;64036;48.266;14.192;2023-02-04T03:38:34;6.07;74.15
75457;SHT31;64036;48.266;14.192;2023-02-04T03:41:18;6.04;74.39
75457;SHT31;64036;48.266;14.192;2023-02-04T03:43:44;6.01;74.48
75457;SHT31;64036;48.266;14.192;2023-02-04T03:46:10;6.01;74.28
75457;SHT31;64036;48.266;14.192;2023-02-04T03:48:36;6.04;73.80
75457;SHT31;64036;48.266;14.192;2023-02-04T03:51:01;6.08;73.57
75457;SHT31;64036;48.266;14.192;2023-02-04T03:53:27;6.08;73.54
75457;SHT31;64036;48.266;14.192;2023-02-04T03:55:53;6.06;73.45
75457;SHT31;64036;48.266;14.192;2023-02-04T03:58:24;6.05;73.39
75457;SHT31;64036;48.266;14.192;2023-02-04T04:00:50;6.04;73.11
75457;SHT31;64036;48.266;14.192;2023-02-04T04:03:15;6.03;73.01
75457;SHT31;64036;48.266;14.192;2023-02-04T04:05:46;5.99;72.69
75457;SHT31;64036;48.266;14.192;2023-02-04T04:08:12;5.97;72.77
75457;SHT31;64036;48.266;14.192;2023-02-04T04:10:40;5.94;72.64
75457;SHT31;64036;48.266;14.192;2023-02-04T04:13:06;5.88;72.70
75457;SHT31;64036;48.266;14.192;2023-02-04T04:15:32;5.84;72.22
75457;SHT31;64036;48.266;14.192;2023-02-04T04:18:00;5.82;72.37
75457;SHT31;64036;48.266;14.192;2023-02-04T04:20:28;5.79;72.20
75457;SHT31;64036;48.266;14.192;2023-02-04T04:22:54;5.79;71.85
75457;SHT31;64036;48.266;14.192;2023-02-04T04:25:20;5.76;71.87
75457;SHT31;64036;48.266;14.192;2023-02-04T04:27:46;5.75;72.05
75457;SHT31;64036;48.266;14.192;2023-02-04T04:30:11;5.74;71.89
75457;SHT31;64036;48.266;14.192;2023-02-04T04:33:02;5.71;71.66
75457;SHT31;64036;48.266;14.192;2023-02-04T04:35:40;5.71;71.89
75457;SHT31;64036;48.266;14.192;2023-02-04T04:38:21;5.67;71.73
75457;SHT31;64036;48.266;14.192;2023-02-04T04:41:03;5.64;72.01
75457;SHT31;64036;48.266;14.192;2023-02-04T04:43:35;5.63;71.95
75457;SHT31;64036;48.266;14.192;2023-02-04T04:46:00;5.62;71.55
75457;SHT31;64036;48.266;14.192;2023-02-04T04:48:26;5.64;71.46
75457;SHT31;64036;48.266;14.192;2023-02-04T04:50:52;5.63;71.50
75457;SHT31;64036;48.266;14.192;2023-02-04T04:53:23;5.62;71.67
75457;SHT31;64036;48.266;14.192;2023-02-04T04:55:54;5.61;71.63
75457;SHT31;64036;48.266;14.192;2023-02-04T04:58:20;5.60;71.67
75457;SHT31;64036;48.266;14.192;2023-02-04T05:00:48;5.59;71.45
75457;SHT31;64036;48.266;14.192;2023-02-04T05:03:14;5.61;71.38
75457;SHT31;64036;48.266;14.192;2023-02-04T05:05:40;5.60;71.14
75457;SHT31;64036;48.266;14.192;2023-02-04T05:08:06;5.61;71.15
75457;SHT31;64036;48.266;14.192;2023-02-04T05:10:40;5.60;71.21
75457;SHT31;64036;48.266;14.192;2023-02-04T05:13:10;5.60;71.27
75457;SHT31;64036;48.266;14.192;2023-02-04T05:15:58;5.58;71.28
75457;SHT31;64036;48.266;14.192;2023-02-04T05:18:53;5.56;71.28
75457;SHT31;64036;48.266;14.192;2023-02-04T05:21:29;5.56;71.39
75457;SHT31;64036;48.266;14.192;2023-02-04T05:24:28;5.54;71.55
75457;SHT31;64036;48.266;14.192;2023-02-04T05:27:02;5.50;71.96
75457;SHT31;64036;48.266;14.192;2023-02-04T05:29:30;5.46;72.50
75457;SHT31;64036;48.266;14.192;2023-02-04T05:32:14;5.41;72.72
75457;SHT31;64036;48.266;14.192;2023-02-04T05:35:09;5.41;72.98
75457;SHT31;64036;48.266;14.192;2023-02-04T05:37:38;5.41;73.11
75457;SHT31;64036;48.266;14.192;2023-02-04T05:40:04;5.39;73.22
75457;SHT31;64036;48.266;14.192;2023-02-04T05:42:46;5.38;73.36
75457;SHT31;64036;48.266;14.192;2023-02-04T05:45:36;5.36;73.46
75457;SHT31;64036;48.266;14.192;2023-02-04T05:48:04;5.34;73.71
75457;SHT31;64036;48.266;14.192;2023-02-04T05:50:35;5.31;73.98
75457;SHT31;64036;48.266;14.192;2023-02-04T05:53:01;5.28;74.09
75457;SHT31;64036;48.266;14.192;2023-02-04T05:55:43;5.26;74.25
75457;SHT31;64036;48.266;14.192;2023-02-04T05:58:16;5.25;74.57
75457;SHT31;64036;48.266;14.192;2023-02-04T06:00:42;5.22;75.02
75457;SHT31;64036;48.266;14.192;2023-02-04T06:03:11;5.19;75.49
75457;SHT31;64036;48.266;14.192;2023-02-04T06:05:38;5.12;76.08
75457;SHT31;64036;48.266;14.192;2023-02-04T06:08:05;4.99;76.29
75457;SHT31;64036;48.266;14.192;2023-02-04T06:10:49;4.84;76.07
75457;SHT31;64036;48.266;14.192;2023-02-04T06:13:24;4.65;75.85
75457;SHT31;64036;48.266;14.192;2023-02-04T06:15:49;4.43;75.92
75457;SHT31;64036;48.266;14.192;2023-02-04T06:18:29;4.26;76.33
75457;SHT31;64036;48.266;14.192;2023-02-04T06:21:36;4.11;76.53
75457;SHT31;64036;48.266;14.192;2023-02-04T06:24:16;4.03;76.86
75457;SHT31;64036;48.266;14.192;2023-02-04T06:27:11;3.99;77.03
75457;SHT31;64036;48.266;14.192;2023-02-04T06:30:16;3.97;76.87
75457;SHT31;64036;48.266;14.192;2023-02-04T06:33:51;3.96;76.83
75457;SHT31;64036;48.266;14.192;2023-02-04T06:37:11;3.95;76.49
75457;SHT31;64036;48.266;14.192;2023-02-04T06:39:41;3.98;75.71
75457;SHT31;64036;48.266;14.192;2023-02-04T06:42:19;4.01;74.77
75457;SHT31;64036;48.266;14.192;2023-02-04T06:44:50;4.03;74.17
75457;SHT31;64036;48.266;14.192;2023-02-04T06:47:28;4.04;73.67
75457;SHT31;64036;48.266;14.192;2023-02-04T06:50:13;4.06;72.90
75457;SHT31;64036;48.266;14.192;2023-02-04T06:52:48;4.07;72.20
75457;SHT31;64036;48.266;14.192;2023-02-04T06:55:15;4.07;71.66
75457;SHT31;64036;48.266;14.192;2023-02-04T06:57:52;4.09;71.71
75457;SHT31;64036;48.266;14.192;2023-02-04T07:00:18;4.10;70.58
75457;SHT31;64036;48.266;14.192;2023-02-04T07:02:44;4.13;70.72
75457;SHT31;64036;48.266;14.192;2023-02-04T07:05:15;4.15;70.46
75457;SHT31;64036;48.266;14.192;2023-02-04T07:07:57;4.23;70.79
75457;SHT31;64036;48.266;14.192;2023-02-04T07:10:34;4.94;68.34
75457;SHT31;64036;48.266;14.192;2023-02-04T07:13:02;6.18;66.64
75457;SHT31;64036;48.266;14.192;2023-02-04T07:15:28;7.37;64.80
75457;SHT31;64036;48.266;14.192;2023-02-04T07:17:53;8.43;62.67
75457;SHT31;64036;48.266;14.192;2023-02-04T07:20:19;9.49;61.43
75457;SHT31;64036;48.266;14.192;2023-02-04T07:22:45;10.38;58.84
75457;SHT31;64036;48.266;14.192;2023-02-04T07:25:10;11.15;57.50
75457;SHT31;64036;48.266;14.192;2023-02-04T07:27:39;11.88;55.97
75457;SHT31;64036;48.266;14.192;2023-02-04T07:30:05;12.50;54.09
75457;SHT31;64036;48.266;14.192;2023-02-04T07:32:31;13.05;51.86
75457;SHT31;64036;48.266;14.192;2023-02-04T07:34:58;13.50;51.23
75457;SHT31;64036;48.266;14.192;2023-02-04T07:37:24;13.96;49.06
75457;SHT31;64036;48.266;14.192;2023-02-04T07:39:50;14.40;48.31
75457;SHT31;64036;48.266;14.192;2023-02-04T07:42:16;14.94;47.92
75457;SHT31;64036;48.266;14.192;2023-02-04T07:44:41;15.45;45.38
75457;SHT31;64036;48.266;14.192;2023-02-04T07:47:07;15.79;44.21
75457;SHT31;64036;48.266;14.192;2023-02-04T07:49:33;16.03;42.79
75457;SHT31;64036;48.266;14.192;2023-02-04T07:51:58;16.33;42.65
75457;SHT31;64036;48.266;14.192;2023-02-04T07:54:24;16.56;40.67
75457;SHT31;64036;48.266;14.192;2023-02-04T07:56:49;16.81;39.27
75457;SHT31;64036;48.266;14.192;2023-02-04T07:59:15;16.84;39.00
75457;SHT31;64036;48.266;14.192;2023-02-04T08:01:41;16.45;38.74
75457;SHT31;64036;48.266;14.192;2023-02-04T08:04:06;16.11;39.44
75457;SHT31;64036;48.266;14.192;2023-02-04T08:06:32;16.42;39.34
75457;SHT31;64036;48.266;14.192;2023-02-04T08:08:57;16.98;40.27
75457;SHT31;64036;48.266;14.192;2023-02-04T08:11:23;17.39;37.74
75457;SHT31;64036;48.266;14.192;2023-02-04T08:13:51;17.56;37.16
75457;SHT31;64036;48.266;14.192;2023-02-04T08:16:16;17.69;37.67
75457;SHT31;64036;48.266;14.192;2023-02-04T08:18:42;17.92;36.20
75457;SHT31;64036;48.266;14.192;2023-02-04T08:21:08;18.06;36.11
75457;SHT31;64036;48.266;14.192;2023-02-04T08:23:33;18.41;35.92
75457;SHT31;64036;48.266;14.192;2023-02-04T08:25:59;18.63;35.89
75457;SHT31;64036;48.266;14.192;2023-02-04T08:28:25;18.93;35.88
75457;SHT31;64036;48.266;14.192;2023-02-04T08:30:50;18.89;33.65
75457;SHT31;64036;48.266;14.192;2023-02-04T08:33:16;18.73;33.22
75457;SHT31;64036;48.266;14.192;2023-02-04T08:35:42;18.84;32.72
75457;SHT31;64036;48.266;14.192;2023-02-04T08:38:07;18.84;32.53
75457;SHT31;64036;48.266;14.192;2023-02-04T08:40:33;18.95;32.53
75457;SHT31;64036;48.266;14.192;2023-02-04T08:42:58;18.62;32.97
75457;SHT31;64036;48.266;14.192;2023-02-04T08:45:24;17.93;33.58
75457;SHT31;64036;48.266;14.192;2023-02-04T08:47:49;18.13;34.22
75457;SHT31;64036;48.266;14.192;2023-02-04T08:50:15;18.53;34.54
75457;SHT31;64036;48.266;14.192;2023-02-04T08:52:41;19.01;34.97
75457;SHT31;64036;48.266;14.192;2023-02-04T08:55:07;19.45;33.94
75457;SHT31;64036;48.266;14.192;2023-02-04T08:57:33;19.80;33.25
75457;SHT31;64036;48.266;14.192;2023-02-04T08:59:59;20.16;32.72
75457;SHT31;64036;48.266;14.192;2023-02-04T09:02:25;20.15;32.82
75457;SHT31;64036;48.266;14.192;2023-02-04T09:04:50;19.90;32.36
75457;SHT31;64036;48.266;14.192;2023-02-04T09:07:16;19.69;32.76
75457;SHT31;64036;48.266;14.192;2023-02-04T09:09:42;19.94;33.86
75457;SHT31;64036;48.266;14.192;2023-02-04T09:12:07;19.98;33.47
75457;SHT31;64036;48.266;14.192;2023-02-04T09:14:33;19.71;32.55
75457;SHT31;64036;48.266;14.192;2023-02-04T09:16:59;19.29;32.97
75457;SHT31;64036;48.266;14.192;2023-02-04T09:19:25;19.09;32.69
75457;SHT31;64036;48.266;14.192;2023-02-04T09:21:51;19.21;34.21
75457;SHT31;64036;48.266;14.192;2023-02-04T09:24:18;18.94;33.25
75457;SHT31;64036;48.266;14.192;2023-02-04T09:26:47;17.41;34.22
75457;SHT31;64036;48.266;14.192;2023-02-04T09:29:13;16.00;35.63
75457;SHT31;64036;48.266;14.192;2023-02-04T09:31:39;14.97;36.71
75457;SHT31;64036;48.266;14.192;2023-02-04T09:34:05;14.17;38.02
75457;SHT31;64036;48.266;14.192;2023-02-04T09:36:31;13.57;38.34
75457;SHT31;64036;48.266;14.192;2023-02-04T09:39:02;13.72;38.83
75457;SHT31;64036;48.266;14.192;2023-02-04T09:41:33;13.67;39.67
75457;SHT31;64036;48.266;14.192;2023-02-04T09:44:01;13.26;39.56
75457;SHT31;64036;48.266;14.192;2023-02-04T09:46:29;12.93;39.63
75457;SHT31;64036;48.266;14.192;2023-02-04T09:48:59;12.62;40.10
75457;SHT31;64036;48.266;14.192;2023-02-04T09:51:27;12.05;40.03
75457;SHT31;64036;48.266;14.192;2023-02-04T09:56:43;11.41;42.70
75457;SHT31;64036;48.266;14.192;2023-02-04T09:59:10;11.26;43.12
75457;SHT31;64036;48.266;14.192;2023-02-04T10:01:38;11.12;42.81
75457;SHT31;64036;48.266;14.192;2023-02-04T10:04:05;10.91;42.99
75457;SHT31;64036;48.266;14.192;2023-02-04T10:06:37;10.68;43.28
75457;SHT31;64036;48.266;14.192;2023-02-04T10:09:03;10.34;42.53
75457;SHT31;64036;48.266;14.192;2023-02-04T10:11:30;10.08;44.46
75457;SHT31;64036;48.266;14.192;2023-02-04T10:14:00;9.94;43.78
75457;SHT31;64036;48.266;14.192;2023-02-04T10:16:30;9.67;43.88
75457;SHT31;64036;48.266;14.192;2023-02-04T10:18:58;9.44;44.88
75457;SHT31;64036;48.266;14.192;2023-02-04T10:21:28;9.21;45.69
75457;SHT31;64036;48.266;14.192;2023-02-04T10:24:02;9.05;46.25
75457;SHT31;64036;48.266;14.192;2023-02-04T10:26:31;8.98;46.43
75457;SHT31;64036;48.266;14.192;2023-02-04T10:29:01;8.96;46.14
75457;SHT31;64036;48.266;14.192;2023-02-04T10:31:37;8.98;46.41
75457;SHT31;64036;48.266;14.192;2023-02-04T10:36:53;8.92;46.28
75457;SHT31;64036;48.266;14.192;2023-02-04T10:39:26;8.81;46.59
75457;SHT31;64036;48.266;14.192;2023-02-04T10:41:54;8.72;46.76
75457;SHT31;64036;48.266;14.192;2023-02-04T10:44:26;8.67;47.37
75457;SHT31;64036;48.266;14.192;2023-02-04T10:47:00;8.68;47.54
75457;SHT31;64036;48.266;14.192;2023-02-04T10:49:39;8.85;47.42
75457;SHT31;64036;48.266;14.192;2023-02-04T10:52:15;9.21;47.58
75457;SHT31;64036;48.266;14.192;2023-02-04T10:54:42;9.08;46.34
75457;SHT31;64036;48.266;14.192;2023-02-04T10:59:49;8.69;47.77
75457;SHT31;64036;48.266;14.192;2023-02-04T11:05:15;9.00;48.49
75457;SHT31;64036;48.266;14.192;2023-02-04T11:07:47;9.36;48.10
75457;SHT31;64036;48.266;14.192;2023-02-04T11:10:17;9.73;48.05
75457;SHT31;64036;48.266;14.192;2023-02-04T11:20:45;10.59;46.11
75457;SHT31;64036;48.266;14.192;2023-02-04T11:33:44;10.56;45.93
75457;SHT31;64036;48.266;14.192;2023-02-04T11:36:12;10.70;46.35
75457;SHT31;64036;48.266;14.192;2023-02-04T11:38:42;10.88;45.98
75457;SHT31;64036;48.266;14.192;2023-02-04T11:41:14;10.77;44.95
75457;SHT31;64036;48.266;14.192;2023-02-04T11:43:51;10.70;45.26
75457;SHT31;64036;48.266;14.192;2023-02-04T11:46:18;10.58;44.58
75457;SHT31;64036;48.266;14.192;2023-02-04T11:48:44;10.40;45.66
75457;SHT31;64036;48.266;14.192;2023-02-04T11:51:12;10.32;45.52
75457;SHT31;64036;48.266;14.192;2023-02-04T11:53:41;10.09;44.13
75457;SHT31;64036;48.266;14.192;2023-02-04T11:56:15;9.91;44.94
75457;SHT31;64036;48.266;14.192;2023-02-04T11:58:42;9.63;45.27
75457;SHT31;64036;48.266;14.192;2023-02-04T12:01:22;9.36;45.40
75457;SHT31;64036;48.266;14.192;2023-02-04T12:03:54;9.15;45.33
75457;SHT31;64036;48.266;14.192;2023-02-04T12:06:28;9.03;45.95
75457;SHT31;64036;48.266;14.192;2023-02-04T12:09:04;8.95;45.43
75457;SHT31;64036;48.266;14.192;2023-02-04T12:11:49;8.89;46.28
75457;SHT31;64036;48.266;14.192;2023-02-04T12:14:19;8.70;45.45
75457;SHT31;64036;48.266;14.192;2023-02-04T12:16:46;8.54;45.46
75457;SHT31;64036;48.266;14.192;2023-02-04T12:19:18;8.43;45.60
75457;SHT31;64036;48.266;14.192;2023-02-04T12:21:44;8.33;45.74
75457;SHT31;64036;48.266;14.192;2023-02-04T12:24:09;8.25;46.00
75457;SHT31;64036;48.266;14.192;2023-02-04T12:26:38;8.17;45.61
75457;SHT31;64036;48.266;14.192;2023-02-04T12:29:06;8.28;45.57
75457;SHT31;64036;48.266;14.192;2023-02-04T12:31:33;8.41;45.81
75457;SHT31;64036;48.266;14.192;2023-02-04T12:33:59;8.61;45.77
75457;SHT31;64036;48.266;14.192;2023-02-04T12:36:25;8.76;45.52
75457;SHT31;64036;48.266;14.192;2023-02-04T12:38:53;8.92;45.21
75457;SHT31;64036;48.266;14.192;2023-02-04T12:41:22;8.99;44.71
75457;SHT31;64036;48.266;14.192;2023-02-04T12:43:51;9.09;44.42
75457;SHT31;64036;48.266;14.192;2023-02-04T12:46:19;9.10;44.22
75457;SHT31;64036;48.266;14.192;2023-02-04T12:48:44;9.18;43.29
75457;SHT31;64036;48.266;14.192;2023-02-04T12:51:11;9.20;43.68
75457;SHT31;64036;48.266;14.192;2023-02-04T12:53:39;9.22;43.57
75457;SHT31;64036;48.266;14.192;2023-02-04T12:56:05;9.16;43.57
75457;SHT31;64036;48.266;14.192;2023-02-04T12:58:34;9.19;44.94
75457;SHT31;64036;48.266;14.192;2023-02-04T13:00:59;9.23;44.92
75457;SHT31;64036;48.266;14.192;2023-02-04T13:03:28;9.22;43.50
75457;SHT31;64036;48.266;14.192;2023-02-04T13:05:54;9.19;43.16
75457;SHT31;64036;48.266;14.192;2023-02-04T13:08:20;9.18;43.13
75457;SHT31;64036;48.266;14.192;2023-02-04T13:10:46;9.36;43.58
75457;SHT31;64036;48.266;14.192;2023-02-04T13:13:16;9.35;43.88
75457;SHT31;64036;48.266;14.192;2023-02-04T13:15:46;9.18;42.05
75457;SHT31;64036;48.266;14.192;2023-02-04T13:18:13;8.99;42.33
75457;SHT31;64036;48.266;14.192;2023-02-04T13:20:39;8.87;43.50
75457;SHT31;64036;48.266;14.192;2023-02-04T13:23:06;8.87;44.27
75457;SHT31;64036;48.266;14.192;2023-02-04T13:25:32;8.89;45.62
75457;SHT31;64036;48.266;14.192;2023-02-04T13:28:09;8.79;44.66
75457;SHT31;64036;48.266;14.192;2023-02-04T13:30:38;8.52;43.23
75457;SHT31;64036;48.266;14.192;2023-02-04T13:33:04;8.07;43.96
75457;SHT31;64036;48.266;14.192;2023-02-04T13:35:30;7.74;44.68
75457;SHT31;64036;48.266;14.192;2023-02-04T13:38:04;7.62;45.17
75457;SHT31;64036;48.266;14.192;2023-02-04T13:40:29;7.60;45.61
75457;SHT31;64036;48.266;14.192;2023-02-04T13:43:04;7.68;45.59
75457;SHT31;64036;48.266;14.192;2023-02-04T13:45:45;7.67;45.39
75457;SHT31;64036;48.266;14.192;2023-02-04T13:48:16;7.58;44.82
75457;SHT31;64036;48.266;14.192;2023-02-04T13:50:45;7.47;45.15
75457;SHT31;64036;48.266;14.192;2023-02-04T13:56:00;7.29;45.92
75457;SHT31;64036;48.266;14.192;2023-02-04T13:58:32;7.19;46.18
75457;SHT31;64036;48.266;14.192;2023-02-04T14:01:00;7.11;46.80
75457;SHT31;64036;48.266;14.192;2023-02-04T14:03:27;7.04;46.56
75457;SHT31;64036;48.266;14.192;2023-02-04T14:05:54;7.00;46.45
75457;SHT31;64036;48.266;14.192;2023-02-04T14:08:20;6.91;46.87
75457;SHT31;64036;48.266;14.192;2023-02-04T14:10:53;6.75;47.63
75457;SHT31;64036;48.266;14.192;2023-02-04T14:13:33;6.60;48.31
75457;SHT31;64036;48.266;14.192;2023-02-04T14:16:08;6.56;48.71
75457;SHT31;64036;48.266;14.192;2023-02-04T14:18:36;6.61;49.04
75457;SHT31;64036;48.266;14.192;2023-02-04T14:21:02;6.57;49.36
75457;SHT31;64036;48.266;14.192;2023-02-04T14:23:30;6.53;49.28
75457;SHT31;64036;48.266;14.192;2023-02-04T14:26:06;6.51;49.33
75457;SHT31;64036;48.266;14.192;2023-02-04T14:28:32;6.53;49.05
75457;SHT31;64036;48.266;14.192;2023-02-04T14:30:57;6.50;47.90
75457;SHT31;64036;48.266;14.192;2023-02-04T14:33:53;6.47;48.86
75457;SHT31;64036;48.266;14.192;2023-02-04T14:36:31;6.46;48.64
75457;SHT31;64036;48.266;14.192;2023-02-04T14:39:17;6.49;49.23
75457;SHT31;64036;48.266;14.192;2023-02-04T14:41:43;6.49;48.81
75457;SHT31;64036;48.266;14.192;2023-02-04T14:44:23;6.43;48.44
75457;SHT31;64036;48.266;14.192;2023-02-04T14:46:49;6.35;48.24
75457;SHT31;64036;48.266;14.192;2023-02-04T14:49:15;6.29;48.24
75457;SHT31;64036;48.266;14.192;2023-02-04T14:51:49;6.18;47.78
75457;SHT31;64036;48.266;14.192;2023-02-04T14:54:26;6.08;47.07
75457;SHT31;64036;48.266;14.192;2023-02-04T14:56:59;5.97;47.31
75457;SHT31;64036;48.266;14.192;2023-02-04T14:59:53;5.86;47.83
75457;SHT31;64036;48.266;14.192;2023-02-04T15:05:32;5.65;48.52
75457;SHT31;64036;48.266;14.192;2023-02-04T15:08:08;5.51;48.51
75457;SHT31;64036;48.266;14.192;2023-02-04T15:10:34;5.41;48.49
75457;SHT31;64036;48.266;14.192;2023-02-04T15:13:13;5.28;47.63
75457;SHT31;64036;48.266;14.192;2023-02-04T15:15:39;5.19;48.39
75457;SHT31;64036;48.266;14.192;2023-02-04T15:20:44;4.99;47.72
75457;SHT31;64036;48.266;14.192;2023-02-04T15:23:31;4.87;48.69
75457;SHT31;64036;48.266;14.192;2023-02-04T15:25:57;4.76;48.88
75457;SHT31;64036;48.266;14.192;2023-02-04T15:28:32;4.64;48.01
75457;SHT31;64036;48.266;14.192;2023-02-04T15:31:29;4.50;48.11
75457;SHT31;64036;48.266;14.192;2023-02-04T15:34:00;4.40;48.22
75457;SHT31;64036;48.266;14.192;2023-02-04T15:40:03;4.20;48.30
75457;SHT31;64036;48.266;14.192;2023-02-04T15:42:41;4.12;48.53
75457;SHT31;64036;48.266;14.192;2023-02-04T15:45:54;4.04;48.72
75457;SHT31;64036;48.266;14.192;2023-02-04T15:48:47;3.94;49.20
75457;SHT31;64036;48.266;14.192;2023-02-04T15:51:15;3.86;49.12
75457;SHT31;64036;48.266;14.192;2023-02-04T15:54:03;3.80;49.29
75457;SHT31;64036;48.266;14.192;2023-02-04T15:56:29;3.73;49.45
75457;SHT31;64036;48.266;14.192;2023-02-04T16:04:37;3.52;50.09
75457;SHT31;64036;48.266;14.192;2023-02-04T16:07:04;3.45;50.38
75457;SHT31;64036;48.266;14.192;2023-02-04T16:09:35;3.40;50.80
75457;SHT31;64036;48.266;14.192;2023-02-04T16:12:01;3.32;51.01
75457;SHT31;64036;48.266;14.192;2023-02-04T16:14:28;3.24;51.46
75457;SHT31;64036;48.266;14.192;2023-02-04T16:16:54;3.16;51.78
75457;SHT31;64036;48.266;14.192;2023-02-04T16:19:19;3.09;52.13
75457;SHT31;64036;48.266;14.192;2023-02-04T16:21:54;3.02;52.26
75457;SHT31;64036;48.266;14.192;2023-02-04T16:24:32;2.98;52.24
75457;SHT31;64036;48.266;14.192;2023-02-04T16:27:22;2.95;52.40
75457;SHT31;64036;48.266;14.192;2023-02-04T16:30:19;2.87;52.61
75457;SHT31;64036;48.266;14.192;2023-02-04T16:35:55;2.77;52.94
75457;SHT31;64036;48.266;14.192;2023-02-04T16:38:35;2.77;52.66
75457;SHT31;64036;48.266;14.192;2023-02-04T16:41:03;2.69;53.01
75457;SHT31;64036;48.266;14.192;2023-02-04T16:43:30;2.64;53.08
75457;SHT31;64036;48.266;14.192;2023-02-04T16:49:08;2.54;53.53